sensor_id;sensor_type;location;lat;lon;timestamp;temperature;humidity
46720;DHT22;32452;51.382;-0.002;2023-08-08T00:01:19;15.60;73.60
46720;DHT22;32452;51.382;-0.002;2023-08-08T00:04:05;15.50;73.80
46720;DHT22;32452;51.382;-0.002;2023-08-08T00:06:50;15.50;74.00
46720;DHT22;32452;51.382;-0.002;2023-08-08T00:09:36;15.50;74.20
46720;DHT22;32452;51.382;-0.002;2023-08-08T00:12:23;15.40;74.40
46720;DHT22;32452;51.382;-0.002;2023-08-08T00:15:09;15.40;74.70
46720;DHT22;32452;51.382;-0.002;2023-08-08T00:17:54;15.40;74.90
46720;DHT22;32452;51.382;-0.002;2023-08-08T00:20:40;15.40;75.10
46720;DHT22;32452;51.382;-0.002;2023-08-08T00:23:26;15.40;75.30
46720;DHT22;32452;51.382;-0.002;2023-08-08T00:26:11;15.40;75.40
46720;DHT22;32452;51.382;-0.002;2023-08-08T00:28:57;15.40;75.60
46720;DHT22;32452;51.382;-0.002;2023-08-08T00:31:43;15.40;75.70
46720;DHT22;32452;51.382;-0.002;2023-08-08T00:34:28;15.40;75.90
46720;DHT22;32452;51.382;-0.002;2023-08-08T00:37:14;15.30;76.20
46720;DHT22;32452;51.382;-0.002;2023-08-08T00:39:59;15.40;76.50
46720;DHT22;32452;51.382;-0.002;2023-08-08T00:42:45;15.40;76.60
46720;DHT22;32452;51.382;-0.002;2023-08-08T00:45:31;15.40;76.90
46720;DHT22;32452;51.382;-0.002;2023-08-08T00:48:17;15.40;77.20
46720;DHT22;32452;51.382;-0.002;2023-08-08T00:51:04;15.40;77.40
46720;DHT22;32452;51.382;-0.002;2023-08-08T00:53:50;15.40;77.50
46720;DHT22;32452;51.382;-0.002;2023-08-08T00:56:36;15.40;77.70
46720;DHT22;32452;51.382;-0.002;2023-08-08T00:59:23;15.40;77.80
46720;DHT22;32452;51.382;-0.002;2023-08-08T01:02:09;15.50;78.00
46720;DHT22;32452;51.382;-0.002;2023-08-08T01:04:54;15.50;78.10
46720;DHT22;32452;51.382;-0.002;2023-08-08T01:08:01;15.50;78.30
46720;DHT22;32452;51.382;-0.002;2023-08-08T01:10:49;15.50;78.40
46720;DHT22;32452;51.382;-0.002;2023-08-08T01:13:35;15.40;78.50
46720;DHT22;32452;51.382;-0.002;2023-08-08T01:16:23;15.40;78.70
46720;DHT22;32452;51.382;-0.002;2023-08-08T01:19:13;15.40;78.80
46720;DHT22;32452;51.382;-0.002;2023-08-08T01:22:09;15.30;79.00
46720;DHT22;32452;51.382;-0.002;2023-08-08T01:25:00;15.30;79.10
46720;DHT22;32452;51.382;-0.002;2023-08-08T01:27:46;15.20;79.30
46720;DHT22;32452;51.382;-0.002;2023-08-08T01:30:32;15.20;79.60
46720;DHT22;32452;51.382;-0.002;2023-08-08T01:33:18;15.10;79.90
46720;DHT22;32452;51.382;-0.002;2023-08-08T01:36:10;15.00;80.10
46720;DHT22;32452;51.382;-0.002;2023-08-08T01:39:00;15.00;81.30
46720;DHT22;32452;51.382;-0.002;2023-08-08T01:41:50;14.90;80.80
46720;DHT22;32452;51.382;-0.002;2023-08-08T01:44:36;14.90;81.10
46720;DHT22;32452;51.382;-0.002;2023-08-08T01:47:22;14.80;81.40
46720;DHT22;32452;51.382;-0.002;2023-08-08T01:50:08;14.80;81.80
46720;DHT22;32452;51.382;-0.002;2023-08-08T01:52:53;14.80;82.10
46720;DHT22;32452;51.382;-0.002;2023-08-08T01:55:39;14.70;82.40
46720;DHT22;32452;51.382;-0.002;2023-08-08T01:58:25;14.70;82.70
46720;DHT22;32452;51.382;-0.002;2023-08-08T02:01:10;14.60;83.00
46720;DHT22;32452;51.382;-0.002;2023-08-08T02:03:56;14.60;83.30
46720;DHT22;32452;51.382;-0.002;2023-08-08T02:06:41;14.60;83.60
46720;DHT22;32452;51.382;-0.002;2023-08-08T02:09:27;14.50;83.80
46720;DHT22;32452;51.382;-0.002;2023-08-08T02:12:13;14.50;84.30
46720;DHT22;32452;51.382;-0.002;2023-08-08T02:14:58;14.50;84.50
46720;DHT22;32452;51.382;-0.002;2023-08-08T02:17:45;14.50;84.90
46720;DHT22;32452;51.382;-0.002;2023-08-08T02:20:31;14.40;85.20
46720;DHT22;32452;51.382;-0.002;2023-08-08T02:23:16;14.40;85.50
46720;DHT22;32452;51.382;-0.002;2023-08-08T02:26:02;14.40;85.80
46720;DHT22;32452;51.382;-0.002;2023-08-08T02:28:47;14.30;86.00
46720;DHT22;32452;51.382;-0.002;2023-08-08T02:31:33;14.30;86.30
46720;DHT22;32452;51.382;-0.002;2023-08-08T02:34:19;14.30;86.80
46720;DHT22;32452;51.382;-0.002;2023-08-08T02:37:04;14.20;87.00
46720;DHT22;32452;51.382;-0.002;2023-08-08T02:39:50;14.30;87.40
46720;DHT22;32452;51.382;-0.002;2023-08-08T02:42:35;14.20;87.70
46720;DHT22;32452;51.382;-0.002;2023-08-08T02:45:21;14.20;88.10
46720;DHT22;32452;51.382;-0.002;2023-08-08T02:48:07;14.20;88.40
46720;DHT22;32452;51.382;-0.002;2023-08-08T02:50:52;14.10;88.70
46720;DHT22;32452;51.382;-0.002;2023-08-08T02:53:38;14.10;89.00
46720;DHT22;32452;51.382;-0.002;2023-08-08T02:56:23;14.10;89.40
46720;DHT22;32452;51.382;-0.002;2023-08-08T02:59:09;14.10;89.70
46720;DHT22;32452;51.382;-0.002;2023-08-08T03:01:54;14.00;90.00
46720;DHT22;32452;51.382;-0.002;2023-08-08T03:04:40;14.00;90.10
46720;DHT22;32452;51.382;-0.002;2023-08-08T03:07:26;14.00;90.20
46720;DHT22;32452;51.382;-0.002;2023-08-08T03:10:12;13.90;90.40
46720;DHT22;32452;51.382;-0.002;2023-08-08T03:12:57;13.90;90.50
46720;DHT22;32452;51.382;-0.002;2023-08-08T03:15:43;13.90;90.70
46720;DHT22;32452;51.382;-0.002;2023-08-08T03:18:28;13.90;90.80
46720;DHT22;32452;51.382;-0.002;2023-08-08T03:21:14;14.00;91.00
46720;DHT22;32452;51.382;-0.002;2023-08-08T03:24:00;14.00;91.10
46720;DHT22;32452;51.382;-0.002;2023-08-08T03:26:45;14.00;91.20
46720;DHT22;32452;51.382;-0.002;2023-08-08T03:29:31;14.00;91.30
46720;DHT22;32452;51.382;-0.002;2023-08-08T03:32:17;14.00;91.30
46720;DHT22;32452;51.382;-0.002;2023-08-08T03:35:02;14.00;91.50
46720;DHT22;32452;51.382;-0.002;2023-08-08T03:37:49;14.00;91.60
46720;DHT22;32452;51.382;-0.002;2023-08-08T03:40:35;14.00;91.60
46720;DHT22;32452;51.382;-0.002;2023-08-08T03:43:20;13.90;91.80
46720;DHT22;32452;51.382;-0.002;2023-08-08T03:46:06;13.90;91.90
46720;DHT22;32452;51.382;-0.002;2023-08-08T03:48:52;13.90;92.10
46720;DHT22;32452;51.382;-0.002;2023-08-08T03:51:38;14.00;92.20
46720;DHT22;32452;51.382;-0.002;2023-08-08T03:54:24;14.00;92.30
46720;DHT22;32452;51.382;-0.002;2023-08-08T03:57:09;14.10;92.40
46720;DHT22;32452;51.382;-0.002;2023-08-08T03:59:54;14.10;92.50
46720;DHT22;32452;51.382;-0.002;2023-08-08T04:02:40;14.10;92.60
46720;DHT22;32452;51.382;-0.002;2023-08-08T04:05:26;14.20;92.60
46720;DHT22;32452;51.382;-0.002;2023-08-08T04:08:11;14.20;92.70
46720;DHT22;32452;51.382;-0.002;2023-08-08T04:10:58;14.30;92.80
46720;DHT22;32452;51.382;-0.002;2023-08-08T04:13:43;14.30;92.80
46720;DHT22;32452;51.382;-0.002;2023-08-08T04:16:28;14.30;92.90
46720;DHT22;32452;51.382;-0.002;2023-08-08T04:19:14;14.40;92.90
46720;DHT22;32452;51.382;-0.002;2023-08-08T04:22:00;14.40;93.00
46720;DHT22;32452;51.382;-0.002;2023-08-08T04:24:46;14.40;93.00
46720;DHT22;32452;51.382;-0.002;2023-08-08T04:27:31;14.40;93.00
46720;DHT22;32452;51.382;-0.002;2023-08-08T04:30:17;14.40;93.10
46720;DHT22;32452;51.382;-0.002;2023-08-08T04:33:03;14.40;93.20
46720;DHT22;32452;51.382;-0.002;2023-08-08T04:35:48;14.40;93.60
46720;DHT22;32452;51.382;-0.002;2023-08-08T04:38:34;14.50;93.30
46720;DHT22;32452;51.382;-0.002;2023-08-08T04:41:19;14.50;93.40
46720;DHT22;32452;51.382;-0.002;2023-08-08T04:44:05;14.50;93.40
46720;DHT22;32452;51.382;-0.002;2023-08-08T04:46:50;14.50;93.50
46720;DHT22;32452;51.382;-0.002;2023-08-08T04:49:36;14.60;93.60
46720;DHT22;32452;51.382;-0.002;2023-08-08T04:52:22;14.60;93.60
46720;DHT22;32452;51.382;-0.002;2023-08-08T04:55:08;14.60;93.70
46720;DHT22;32452;51.382;-0.002;2023-08-08T04:57:54;14.60;93.90
46720;DHT22;32452;51.382;-0.002;2023-08-08T05:00:39;14.60;93.80
46720;DHT22;32452;51.382;-0.002;2023-08-08T05:03:25;14.60;93.80
46720;DHT22;32452;51.382;-0.002;2023-08-08T05:06:11;14.60;93.90
46720;DHT22;32452;51.382;-0.002;2023-08-08T05:08:56;14.60;94.00
46720;DHT22;32452;51.382;-0.002;2023-08-08T05:11:42;14.60;94.10
46720;DHT22;32452;51.382;-0.002;2023-08-08T05:14:27;14.60;94.10
46720;DHT22;32452;51.382;-0.002;2023-08-08T05:17:13;14.60;94.20
46720;DHT22;32452;51.382;-0.002;2023-08-08T05:19:58;14.60;94.30
46720;DHT22;32452;51.382;-0.002;2023-08-08T05:22:44;14.60;94.50
46720;DHT22;32452;51.382;-0.002;2023-08-08T05:25:30;14.50;94.60
46720;DHT22;32452;51.382;-0.002;2023-08-08T05:28:15;14.50;94.80
46720;DHT22;32452;51.382;-0.002;2023-08-08T05:31:01;14.60;95.00
46720;DHT22;32452;51.382;-0.002;2023-08-08T05:33:48;14.60;95.10
46720;DHT22;32452;51.382;-0.002;2023-08-08T05:36:34;14.60;95.20
46720;DHT22;32452;51.382;-0.002;2023-08-08T05:39:19;14.70;95.30
46720;DHT22;32452;51.382;-0.002;2023-08-08T05:42:05;14.80;95.40
46720;DHT22;32452;51.382;-0.002;2023-08-08T05:44:51;14.80;95.50
46720;DHT22;32452;51.382;-0.002;2023-08-08T05:47:37;14.90;95.50
46720;DHT22;32452;51.382;-0.002;2023-08-08T05:50:23;15.00;95.60
46720;DHT22;32452;51.382;-0.002;2023-08-08T05:53:08;15.10;95.60
46720;DHT22;32452;51.382;-0.002;2023-08-08T05:55:55;15.20;95.70
46720;DHT22;32452;51.382;-0.002;2023-08-08T05:58:40;15.60;95.70
46720;DHT22;32452;51.382;-0.002;2023-08-08T06:01:26;16.30;95.40
46720;DHT22;32452;51.382;-0.002;2023-08-08T06:04:12;17.00;94.60
46720;DHT22;32452;51.382;-0.002;2023-08-08T06:06:58;18.00;93.40
46720;DHT22;32452;51.382;-0.002;2023-08-08T06:09:44;18.80;91.80
46720;DHT22;32452;51.382;-0.002;2023-08-08T06:12:29;19.00;90.70
46720;DHT22;32452;51.382;-0.002;2023-08-08T06:15:15;19.10;90.10
46720;DHT22;32452;51.382;-0.002;2023-08-08T06:18:01;19.10;89.60
46720;DHT22;32452;51.382;-0.002;2023-08-08T06:20:46;19.00;90.00
46720;DHT22;32452;51.382;-0.002;2023-08-08T06:23:32;18.80;88.90
46720;DHT22;32452;51.382;-0.002;2023-08-08T06:26:17;18.40;89.20
46720;DHT22;32452;51.382;-0.002;2023-08-08T06:29:03;18.10;90.00
46720;DHT22;32452;51.382;-0.002;2023-08-08T06:31:48;18.00;90.50
46720;DHT22;32452;51.382;-0.002;2023-08-08T06:34:34;18.50;90.40
46720;DHT22;32452;51.382;-0.002;2023-08-08T06:37:20;19.00;89.60
46720;DHT22;32452;51.382;-0.002;2023-08-08T06:40:06;19.60;88.20
46720;DHT22;32452;51.382;-0.002;2023-08-08T06:42:52;19.90;86.60
46720;DHT22;32452;51.382;-0.002;2023-08-08T06:45:38;19.90;85.90
46720;DHT22;32452;51.382;-0.002;2023-08-08T06:48:24;19.70;85.50
46720;DHT22;32452;51.382;-0.002;2023-08-08T06:51:09;19.50;85.60
46720;DHT22;32452;51.382;-0.002;2023-08-08T06:53:55;19.30;86.00
46720;DHT22;32452;51.382;-0.002;2023-08-08T06:56:41;19.00;86.70
46720;DHT22;32452;51.382;-0.002;2023-08-08T06:59:27;18.70;87.20
46720;DHT22;32452;51.382;-0.002;2023-08-08T07:02:12;18.60;88.00
46720;DHT22;32452;51.382;-0.002;2023-08-08T07:04:58;18.50;88.30
46720;DHT22;32452;51.382;-0.002;2023-08-08T07:07:44;18.30;88.70
46720;DHT22;32452;51.382;-0.002;2023-08-08T07:10:30;18.20;89.10
46720;DHT22;32452;51.382;-0.002;2023-08-08T07:13:15;18.00;89.80
46720;DHT22;32452;51.382;-0.002;2023-08-08T07:16:01;17.80;90.10
46720;DHT22;32452;51.382;-0.002;2023-08-08T07:18:46;17.80;90.30
46720;DHT22;32452;51.382;-0.002;2023-08-08T07:21:35;17.70;90.40
46720;DHT22;32452;51.382;-0.002;2023-08-08T07:24:20;17.70;90.60
46720;DHT22;32452;51.382;-0.002;2023-08-08T07:27:06;17.70;90.70
46720;DHT22;32452;51.382;-0.002;2023-08-08T07:29:51;17.60;90.70
46720;DHT22;32452;51.382;-0.002;2023-08-08T07:32:37;17.60;90.70
46720;DHT22;32452;51.382;-0.002;2023-08-08T07:35:23;17.50;90.80
46720;DHT22;32452;51.382;-0.002;2023-08-08T07:38:08;17.40;90.80
46720;DHT22;32452;51.382;-0.002;2023-08-08T07:40:54;17.30;91.00
46720;DHT22;32452;51.382;-0.002;2023-08-08T07:43:40;17.20;91.20
46720;DHT22;32452;51.382;-0.002;2023-08-08T07:46:25;17.10;91.40
46720;DHT22;32452;51.382;-0.002;2023-08-08T07:49:11;17.10;91.70
46720;DHT22;32452;51.382;-0.002;2023-08-08T07:51:56;17.00;92.10
46720;DHT22;32452;51.382;-0.002;2023-08-08T07:54:43;17.00;92.50
46720;DHT22;32452;51.382;-0.002;2023-08-08T07:57:28;16.90;93.00
46720;DHT22;32452;51.382;-0.002;2023-08-08T08:00:16;16.90;93.60
46720;DHT22;32452;51.382;-0.002;2023-08-08T08:03:04;16.90;94.10
46720;DHT22;32452;51.382;-0.002;2023-08-08T08:05:50;16.80;94.50
46720;DHT22;32452;51.382;-0.002;2023-08-08T08:08:36;16.80;95.00
46720;DHT22;32452;51.382;-0.002;2023-08-08T08:11:22;16.70;95.40
46720;DHT22;32452;51.382;-0.002;2023-08-08T08:14:07;16.70;95.90
46720;DHT22;32452;51.382;-0.002;2023-08-08T08:16:53;16.80;96.30
46720;DHT22;32452;51.382;-0.002;2023-08-08T08:19:38;16.70;96.70
46720;DHT22;32452;51.382;-0.002;2023-08-08T08:22:24;16.80;97.00
46720;DHT22;32452;51.382;-0.002;2023-08-08T08:25:10;16.90;97.30
46720;DHT22;32452;51.382;-0.002;2023-08-08T08:27:56;16.90;97.50
46720;DHT22;32452;51.382;-0.002;2023-08-08T08:30:41;16.90;97.60
46720;DHT22;32452;51.382;-0.002;2023-08-08T08:33:27;17.00;97.80
46720;DHT22;32452;51.382;-0.002;2023-08-08T08:36:13;17.00;98.00
46720;DHT22;32452;51.382;-0.002;2023-08-08T08:38:59;17.00;98.20
46720;DHT22;32452;51.382;-0.002;2023-08-08T08:41:48;17.00;98.30
46720;DHT22;32452;51.382;-0.002;2023-08-08T08:44:35;17.00;98.90
46720;DHT22;32452;51.382;-0.002;2023-08-08T08:47:21;17.00;98.60
46720;DHT22;32452;51.382;-0.002;2023-08-08T08:50:08;17.00;98.80
46720;DHT22;32452;51.382;-0.002;2023-08-08T08:52:55;17.10;99.00
46720;DHT22;32452;51.382;-0.002;2023-08-08T08:55:43;17.10;99.10
46720;DHT22;32452;51.382;-0.002;2023-08-08T08:58:29;17.00;99.10
46720;DHT22;32452;51.382;-0.002;2023-08-08T09:01:15;17.10;99.10
46720;DHT22;32452;51.382;-0.002;2023-08-08T09:04:02;17.00;99.20
46720;DHT22;32452;51.382;-0.002;2023-08-08T09:06:50;17.00;99.40
46720;DHT22;32452;51.382;-0.002;2023-08-08T09:09:35;17.00;99.60
46720;DHT22;32452;51.382;-0.002;2023-08-08T09:12:22;17.00;99.60
46720;DHT22;32452;51.382;-0.002;2023-08-08T09:15:10;17.00;99.80
46720;DHT22;32452;51.382;-0.002;2023-08-08T09:17:56;17.00;99.90
46720;DHT22;32452;51.382;-0.002;2023-08-08T09:20:47;17.00;99.80
46720;DHT22;32452;51.382;-0.002;2023-08-08T09:23:33;17.00;99.90
46720;DHT22;32452;51.382;-0.002;2023-08-08T09:26:19;17.00;99.90
46720;DHT22;32452;51.382;-0.002;2023-08-08T09:29:05;17.00;99.90
46720;DHT22;32452;51.382;-0.002;2023-08-08T09:31:52;17.00;99.90
46720;DHT22;32452;51.382;-0.002;2023-08-08T09:34:37;17.00;99.90
46720;DHT22;32452;51.382;-0.002;2023-08-08T09:37:23;17.10;99.90
46720;DHT22;32452;51.382;-0.002;2023-08-08T09:40:08;17.10;99.90
46720;DHT22;32452;51.382;-0.002;2023-08-08T09:42:57;17.10;99.90
46720;DHT22;32452;51.382;-0.002;2023-08-08T09:45:47;17.10;99.90
46720;DHT22;32452;51.382;-0.002;2023-08-08T09:48:34;17.10;99.90
46720;DHT22;32452;51.382;-0.002;2023-08-08T09:51:20;17.10;99.90
46720;DHT22;32452;51.382;-0.002;2023-08-08T09:54:06;17.10;99.90
46720;DHT22;32452;51.382;-0.002;2023-08-08T09:56:52;17.20;99.90
46720;DHT22;32452;51.382;-0.002;2023-08-08T09:59:38;17.30;99.90
46720;DHT22;32452;51.382;-0.002;2023-08-08T10:02:24;17.40;99.90
46720;DHT22;32452;51.382;-0.002;2023-08-08T10:05:11;17.40;99.90
46720;DHT22;32452;51.382;-0.002;2023-08-08T10:08:00;17.40;99.90
46720;DHT22;32452;51.382;-0.002;2023-08-08T10:10:48;17.40;99.90
46720;DHT22;32452;51.382;-0.002;2023-08-08T10:13:34;17.30;99.90
46720;DHT22;32452;51.382;-0.002;2023-08-08T10:16:22;17.30;99.90
46720;DHT22;32452;51.382;-0.002;2023-08-08T10:19:08;17.30;99.90
46720;DHT22;32452;51.382;-0.002;2023-08-08T10:22:02;17.30;99.90
46720;DHT22;32452;51.382;-0.002;2023-08-08T10:24:52;17.40;99.90
46720;DHT22;32452;51.382;-0.002;2023-08-08T10:27:38;17.50;99.90
46720;DHT22;32452;51.382;-0.002;2023-08-08T10:30:24;17.50;99.90
46720;DHT22;32452;51.382;-0.002;2023-08-08T10:33:39;17.50;99.90
46720;DHT22;32452;51.382;-0.002;2023-08-08T10:36:25;17.60;99.90
46720;DHT22;32452;51.382;-0.002;2023-08-08T10:39:18;17.60;99.90
46720;DHT22;32452;51.382;-0.002;2023-08-08T10:42:05;17.60;99.90
46720;DHT22;32452;51.382;-0.002;2023-08-08T10:45:01;17.60;99.90
46720;DHT22;32452;51.382;-0.002;2023-08-08T10:47:46;17.60;99.90
46720;DHT22;32452;51.382;-0.002;2023-08-08T10:50:32;17.70;99.90
46720;DHT22;32452;51.382;-0.002;2023-08-08T10:53:25;17.80;99.90
46720;DHT22;32452;51.382;-0.002;2023-08-08T10:56:14;17.90;99.90
46720;DHT22;32452;51.382;-0.002;2023-08-08T10:59:15;18.20;99.90
46720;DHT22;32452;51.382;-0.002;2023-08-08T11:02:07;18.50;99.90
46720;DHT22;32452;51.382;-0.002;2023-08-08T11:04:54;18.60;99.90
46720;DHT22;32452;51.382;-0.002;2023-08-08T11:07:42;18.80;99.90
46720;DHT22;32452;51.382;-0.002;2023-08-08T11:10:28;19.10;99.90
46720;DHT22;32452;51.382;-0.002;2023-08-08T11:13:16;19.20;99.80
46720;DHT22;32452;51.382;-0.002;2023-08-08T11:16:03;19.10;99.40
46720;DHT22;32452;51.382;-0.002;2023-08-08T11:18:48;18.90;99.40
46720;DHT22;32452;51.382;-0.002;2023-08-08T11:21:36;18.80;99.40
46720;DHT22;32452;51.382;-0.002;2023-08-08T11:24:22;18.70;99.40
46720;DHT22;32452;51.382;-0.002;2023-08-08T11:27:08;18.60;99.40
46720;DHT22;32452;51.382;-0.002;2023-08-08T11:29:56;18.60;99.50
46720;DHT22;32452;51.382;-0.002;2023-08-08T11:32:43;18.70;99.60
46720;DHT22;32452;51.382;-0.002;2023-08-08T11:35:28;18.70;99.40
46720;DHT22;32452;51.382;-0.002;2023-08-08T11:38:15;18.70;99.30
46720;DHT22;32452;51.382;-0.002;2023-08-08T11:41:00;18.60;99.40
46720;DHT22;32452;51.382;-0.002;2023-08-08T11:43:46;18.60;99.30
46720;DHT22;32452;51.382;-0.002;2023-08-08T11:46:32;18.50;99.20
46720;DHT22;32452;51.382;-0.002;2023-08-08T11:49:18;18.50;99.20
46720;DHT22;32452;51.382;-0.002;2023-08-08T11:52:06;18.50;99.10
46720;DHT22;32452;51.382;-0.002;2023-08-08T11:54:52;18.40;99.30
46720;DHT22;32452;51.382;-0.002;2023-08-08T11:57:39;18.40;99.40
46720;DHT22;32452;51.382;-0.002;2023-08-08T12:00:29;18.30;99.50
46720;DHT22;32452;51.382;-0.002;2023-08-08T12:03:17;18.20;99.80
46720;DHT22;32452;51.382;-0.002;2023-08-08T12:06:16;18.20;99.90
46720;DHT22;32452;51.382;-0.002;2023-08-08T12:09:03;18.10;99.90
46720;DHT22;32452;51.382;-0.002;2023-08-08T12:11:50;18.10;99.90
46720;DHT22;32452;51.382;-0.002;2023-08-08T12:14:37;18.10;99.90
46720;DHT22;32452;51.382;-0.002;2023-08-08T12:17:36;18.10;99.90
46720;DHT22;32452;51.382;-0.002;2023-08-08T12:20:22;18.20;99.90
46720;DHT22;32452;51.382;-0.002;2023-08-08T12:23:08;18.30;99.90
46720;DHT22;32452;51.382;-0.002;2023-08-08T12:25:54;18.50;99.90
46720;DHT22;32452;51.382;-0.002;2023-08-08T12:28:40;18.60;99.90
46720;DHT22;32452;51.382;-0.002;2023-08-08T12:31:25;18.70;99.90
46720;DHT22;32452;51.382;-0.002;2023-08-08T12:34:11;18.80;99.90
46720;DHT22;32452;51.382;-0.002;2023-08-08T12:36:57;19.00;99.90
46720;DHT22;32452;51.382;-0.002;2023-08-08T12:39:43;19.20;99.90
46720;DHT22;32452;51.382;-0.002;2023-08-08T12:42:30;19.30;99.90
46720;DHT22;32452;51.382;-0.002;2023-08-08T12:45:16;19.40;99.90
46720;DHT22;32452;51.382;-0.002;2023-08-08T12:48:03;19.40;99.90
46720;DHT22;32452;51.382;-0.002;2023-08-08T12:50:49;19.40;99.90
46720;DHT22;32452;51.382;-0.002;2023-08-08T12:53:35;19.40;99.90
46720;DHT22;32452;51.382;-0.002;2023-08-08T12:56:20;19.30;99.90
46720;DHT22;32452;51.382;-0.002;2023-08-08T12:59:06;19.10;99.90
46720;DHT22;32452;51.382;-0.002;2023-08-08T13:01:52;19.00;99.90
46720;DHT22;32452;51.382;-0.002;2023-08-08T13:04:37;18.90;99.90
46720;DHT22;32452;51.382;-0.002;2023-08-08T13:07:23;18.80;99.90
46720;DHT22;32452;51.382;-0.002;2023-08-08T13:10:09;18.80;99.90
46720;DHT22;32452;51.382;-0.002;2023-08-08T13:12:56;18.70;99.90
46720;DHT22;32452;51.382;-0.002;2023-08-08T13:15:42;18.70;99.90
46720;DHT22;32452;51.382;-0.002;2023-08-08T13:18:27;18.70;99.90
46720;DHT22;32452;51.382;-0.002;2023-08-08T13:21:13;18.70;99.90
46720;DHT22;32452;51.382;-0.002;2023-08-08T13:23:59;18.70;99.90
46720;DHT22;32452;51.382;-0.002;2023-08-08T13:26:44;18.70;99.90
46720;DHT22;32452;51.382;-0.002;2023-08-08T13:29:30;18.60;99.90
46720;DHT22;32452;51.382;-0.002;2023-08-08T13:32:16;18.60;99.90
46720;DHT22;32452;51.382;-0.002;2023-08-08T13:35:01;18.50;99.90
46720;DHT22;32452;51.382;-0.002;2023-08-08T13:37:47;18.50;99.90
46720;DHT22;32452;51.382;-0.002;2023-08-08T13:40:37;18.50;99.90
46720;DHT22;32452;51.382;-0.002;2023-08-08T13:43:22;18.40;99.90
46720;DHT22;32452;51.382;-0.002;2023-08-08T13:46:09;18.50;99.90
46720;DHT22;32452;51.382;-0.002;2023-08-08T13:48:55;18.50;99.90
46720;DHT22;32452;51.382;-0.002;2023-08-08T13:51:41;18.50;99.90
46720;DHT22;32452;51.382;-0.002;2023-08-08T13:54:29;18.40;99.90
46720;DHT22;32452;51.382;-0.002;2023-08-08T13:57:15;18.40;99.90
46720;DHT22;32452;51.382;-0.002;2023-08-08T14:00:03;18.30;99.90
46720;DHT22;32452;51.382;-0.002;2023-08-08T14:02:48;18.30;99.90
46720;DHT22;32452;51.382;-0.002;2023-08-08T14:05:34;18.30;99.90
46720;DHT22;32452;51.382;-0.002;2023-08-08T14:08:22;18.30;99.90
46720;DHT22;32452;51.382;-0.002;2023-08-08T14:11:07;18.30;99.90
46720;DHT22;32452;51.382;-0.002;2023-08-08T14:13:53;18.30;99.90
46720;DHT22;32452;51.382;-0.002;2023-08-08T14:16:39;18.30;99.90
46720;DHT22;32452;51.382;-0.002;2023-08-08T14:19:24;18.30;99.90
46720;DHT22;32452;51.382;-0.002;2023-08-08T14:22:10;18.30;99.90
46720;DHT22;32452;51.382;-0.002;2023-08-08T14:24:55;18.30;99.90
46720;DHT22;32452;51.382;-0.002;2023-08-08T14:27:41;18.30;99.90
46720;DHT22;32452;51.382;-0.002;2023-08-08T14:30:26;18.30;99.90
46720;DHT22;32452;51.382;-0.002;2023-08-08T14:33:14;18.50;99.90
46720;DHT22;32452;51.382;-0.002;2023-08-08T14:36:00;18.50;99.90
46720;DHT22;32452;51.382;-0.002;2023-08-08T14:38:45;18.70;99.90
46720;DHT22;32452;51.382;-0.002;2023-08-08T14:41:31;18.80;99.90
46720;DHT22;32452;51.382;-0.002;2023-08-08T14:44:17;18.80;99.90
46720;DHT22;32452;51.382;-0.002;2023-08-08T14:47:03;18.80;99.90
46720;DHT22;32452;51.382;-0.002;2023-08-08T14:49:49;18.80;99.90
46720;DHT22;32452;51.382;-0.002;2023-08-08T14:52:36;18.70;99.90
46720;DHT22;32452;51.382;-0.002;2023-08-08T14:55:22;18.70;99.90
46720;DHT22;32452;51.382;-0.002;2023-08-08T14:58:07;18.70;99.90
46720;DHT22;32452;51.382;-0.002;2023-08-08T15:00:53;18.70;99.90
46720;DHT22;32452;51.382;-0.002;2023-08-08T15:03:40;18.70;99.90
46720;DHT22;32452;51.382;-0.002;2023-08-08T15:06:26;18.60;99.90
46720;DHT22;32452;51.382;-0.002;2023-08-08T15:09:12;18.60;99.90
46720;DHT22;32452;51.382;-0.002;2023-08-08T15:11:58;18.60;99.90
46720;DHT22;32452;51.382;-0.002;2023-08-08T15:14:44;18.50;99.90
46720;DHT22;32452;51.382;-0.002;2023-08-08T15:17:29;18.60;99.90
46720;DHT22;32452;51.382;-0.002;2023-08-08T15:20:15;18.60;99.90
46720;DHT22;32452;51.382;-0.002;2023-08-08T15:23:01;18.60;99.90
46720;DHT22;32452;51.382;-0.002;2023-08-08T15:25:46;18.50;99.90
46720;DHT22;32452;51.382;-0.002;2023-08-08T15:28:32;18.50;99.90
46720;DHT22;32452;51.382;-0.002;2023-08-08T15:31:17;18.40;99.90
46720;DHT22;32452;51.382;-0.002;2023-08-08T15:34:03;18.30;99.90
46720;DHT22;32452;51.382;-0.002;2023-08-08T15:36:49;18.30;99.90
46720;DHT22;32452;51.382;-0.002;2023-08-08T15:39:35;18.30;99.90
46720;DHT22;32452;51.382;-0.002;2023-08-08T15:42:25;18.30;99.90
46720;DHT22;32452;51.382;-0.002;2023-08-08T15:45:11;18.20;99.90
46720;DHT22;32452;51.382;-0.002;2023-08-08T15:47:57;18.20;99.90
46720;DHT22;32452;51.382;-0.002;2023-08-08T15:50:44;18.20;99.90
46720;DHT22;32452;51.382;-0.002;2023-08-08T15:53:29;18.20;99.90
46720;DHT22;32452;51.382;-0.002;2023-08-08T15:56:15;18.20;99.90
46720;DHT22;32452;51.382;-0.002;2023-08-08T15:59:01;18.20;99.90
46720;DHT22;32452;51.382;-0.002;2023-08-08T16:01:47;18.20;99.90
46720;DHT22;32452;51.382;-0.002;2023-08-08T16:04:32;18.20;99.90
46720;DHT22;32452;51.382;-0.002;2023-08-08T16:07:18;18.20;99.90
46720;DHT22;32452;51.382;-0.002;2023-08-08T16:10:05;18.20;99.90
46720;DHT22;32452;51.382;-0.002;2023-08-08T16:12:52;18.20;99.90
46720;DHT22;32452;51.382;-0.002;2023-08-08T16:15:38;18.20;99.90
46720;DHT22;32452;51.382;-0.002;2023-08-08T16:18:23;18.10;99.90
46720;DHT22;32452;51.382;-0.002;2023-08-08T16:21:09;18.10;99.90
46720;DHT22;32452;51.382;-0.002;2023-08-08T16:23:55;18.10;99.90
46720;DHT22;32452;51.382;-0.002;2023-08-08T16:26:40;18.10;99.90
46720;DHT22;32452;51.382;-0.002;2023-08-08T16:29:26;18.10;99.90
46720;DHT22;32452;51.382;-0.002;2023-08-08T16:32:11;18.10;99.90
46720;DHT22;32452;51.382;-0.002;2023-08-08T16:34:57;18.10;99.90
46720;DHT22;32452;51.382;-0.002;2023-08-08T16:37:43;18.00;99.90
46720;DHT22;32452;51.382;-0.002;2023-08-08T16:40:28;18.10;99.90
46720;DHT22;32452;51.382;-0.002;2023-08-08T16:43:15;18.10;99.90
46720;DHT22;32452;51.382;-0.002;2023-08-08T16:46:01;18.10;99.90
46720;DHT22;32452;51.382;-0.002;2023-08-08T16:48:47;18.10;99.90
46720;DHT22;32452;51.382;-0.002;2023-08-08T16:51:35;18.10;99.90
46720;DHT22;32452;51.382;-0.002;2023-08-08T16:54:20;18.10;99.90
46720;DHT22;32452;51.382;-0.002;2023-08-08T16:57:08;18.10;99.90
46720;DHT22;32452;51.382;-0.002;2023-08-08T16:59:53;18.10;99.90
46720;DHT22;32452;51.382;-0.002;2023-08-08T17:02:39;18.10;99.90
46720;DHT22;32452;51.382;-0.002;2023-08-08T17:05:25;18.10;99.90
46720;DHT22;32452;51.382;-0.002;2023-08-08T17:08:10;18.10;99.90
46720;DHT22;32452;51.382;-0.002;2023-08-08T17:10:56;18.10;99.90
46720;DHT22;32452;51.382;-0.002;2023-08-08T17:13:42;18.10;99.90